Metar Cercanos

 

LEPA - Palma De Mallorc, Spain
Distance from station: ONO 38km
Actualización: 18/06/2018 13:00
Few Clouds
Few Clouds
 Viento del OSO
Viento: OSO 26 km/h
Temperatura: 25°C
Rocío: 20°C
Humedad: 74%
Barómetro: 1021 hPa
Clouds: Few Clouds
Visibility: 10 km
Cloud details: Few Clouds 914 m
2018/06/18 11:00 LEPA 181100Z 24014KT 9999 FEW030 25/20 Q1021 NOSIG
LEMH - Mahon/Menorca Is, Spain
Distance from station: ENE 105km
Actualización: 18/06/2018 13:00
Few Clouds
Few Clouds
 Viento del O
Viento: O 24 km/h
Temperatura: 24°C
Rocío: 17°C
Humedad: 65%
Barómetro: 1020 hPa
Clouds: Few Clouds
Visibility: 10 km
Cloud details: Few Clouds 1036 m
2018/06/18 11:00 LEMH 181100Z 27013KT 230V310 9999 FEW034 24/17 Q1020
 
LEIB - Ibiza/Es Codola, Spain
Distance from station: OSO 165km
Actualización: 18/06/2018 13:00
Few Clouds
Few Clouds
 Viento del SSO
Viento: SSO 19 km/h
Temperatura: 25°C
Rocío: 18°C
Humedad: 65%
Barómetro: 1021 hPa
Clouds: Few Clouds
Visibility: 10 km
Cloud details: Few Clouds 610 m
2018/06/18 11:00 LEIB 181100Z 21010KT 170V240 9999 FEW020 25/18 Q1021 NOSIG
LEBL - Barcelona Airpor, Spain
Distance from station: NNO 225km
Actualización: 18/06/2018 13:00
Despejado
Despejado
 Viento del SSO
Viento: SSO 22 km/h
Temperatura: 25°C
Rocío: 17°C
Humedad: 61%
Barómetro: 1020 hPa
Resumen: Despejado
Visibility: greater than 10 km
2018/06/18 11:00 LEBL 181100Z 21012KT CAVOK 25/17 Q1020 NOSIG
 
LEVC - Valencia (civ/Mi, Spain
Distance from station: NO 188km
Actualización: 18/06/2018 13:00
Few Clouds
Few Clouds
 Viento del E
Viento: E 13 km/h
Temperatura: 27°C
Rocío: 10°C
Humedad: 34%
Barómetro: 1021 hPa
Clouds: Few Clouds
Visibility: 10 km
Cloud details: Few Clouds 762 m
2018/06/18 11:00 LEVC 181100Z 10007KT 050V150 9999 FEW025 27/10 Q1021 NOSIG
LEGE - Gerona/Costa Bra, Spain
Distance from station: N 276km
Actualización: 18/06/2018 13:00
Few Clouds
Few Clouds
 Viento del SSE
Viento: SSE 9 km/h
Temperatura: 27°C
Indice Calor: 27°C
Rocío: 15°C
Humedad: 48%
Barómetro: 1020 hPa
Clouds: Few Clouds
Visibility: 10 km
Cloud details: Few Clouds 914 m
2018/06/18 11:00 LEGE 181100Z 15005KT 9999 FEW030 27/15 Q1020
 
LEAL - Alicante/El Alte, Spain
Distance from station: OSO 344km
Actualización: 18/06/2018 13:00
Despejado
Despejado
 Viento del E
Viento: E 13 km/h
Temperatura: 26°C
Rocío: 18°C
Humedad: 61%
Barómetro: 1021 hPa
Resumen: Despejado
Visibility: greater than 10 km
2018/06/18 11:00 LEAL 181100Z 09007KT 060V160 CAVOK 26/18 Q1021 NOSIG
LEAM - Almeria Airport, Spain
Distance from station: SSO 56km
Actualización: 18/06/2018 13:00
Despejado
Despejado
 Viento del E
Viento: E 26 km/h
Temperatura: 33°C
Rocío: 11°C
Humedad: 26%
Barómetro: 1018 hPa
Resumen: Despejado
Visibility: greater than 10 km
2018/06/18 11:00 LEAM 181100Z 08014KT 040V120 CAVOK 33/11 Q1018
 
LEZG - Zaragoza (mil/Ci, Spain
Distance from station: NO 431km
Actualización: 18/06/2018 13:00
Few Clouds
Few Clouds
 Viento del ONO
Viento: ONO 35 km/h
Temperatura: 25°C
Rocío: 12°C
Humedad: 44%
Barómetro: 1023 hPa
Clouds: Few Clouds
Visibility: 10 km
Cloud details: Few Clouds 1372 m
2018/06/18 11:00 LEZG 181100Z 30019KT 270V340 9999 FEW045 25/12 Q1023
LEMD - Madrid/Barajas, Spain
Distance from station: ONO 234km
Actualización: 18/06/2018 13:00
Despejado
Despejado
 Viento del NE
Viento: NE 13 km/h
Temperatura: 29°C
Rocío: 8°C
Humedad: 27%
Barómetro: 1023 hPa
Resumen: Despejado
Visibility: greater than 10 km
2018/06/18 11:00 LEMD 181100Z 04007KT 360V120 CAVOK 29/08 Q1023 NOSIG
 
LEGR - Granada Airport, Spain
Distance from station: OSO 62km
Actualización: 18/06/2018 13:00
Despejado
Despejado
 Viento del NNE
Viento: NNE 7 km/h
Temperatura: 33°C
Rocío: 10°C
Humedad: 24%
Barómetro: 1020 hPa
Resumen: Despejado
Visibility: greater than 10 km
2018/06/18 11:00 LEGR 181100Z 03004KT 320V080 CAVOK 33/10 Q1020
LEMG - Malaga (civ/Mil), Spain
Distance from station: OSO 227km
Actualización: 18/06/2018 13:00
Despejado
Despejado
 Viento del ESE
Viento: ESE 13 km/h
Temperatura: 28°C
Rocío: 11°C
Humedad: 35%
Barómetro: 1019 hPa
Resumen: Despejado
Visibility: greater than 10 km
2018/06/18 11:00 LEMG 181100Z 12007KT 080V160 CAVOK 28/11 Q1019 NOSIG
 
LEZL - Sevilla (civ/Mil, Spain
Distance from station: S 318km
Actualización: 18/06/2018 13:00
Despejado
Despejado
 Viento del ENE
Viento: ENE 17 km/h
Temperatura: 34°C
Rocío: 11°C
Humedad: 24%
Barómetro: 1016 hPa
Resumen: Despejado
Visibility: greater than 10 km
2018/06/18 11:00 LEZL 181100Z 07009KT 030V110 CAVOK 34/11 Q1016 NOSIG
LEVT - Vitoria, Spain
Distance from station: NO 226km
Actualización: 18/06/2018 13:00
Muy nuboso
Muy nuboso
 Viento del calm
Viento: Calma
Temperatura: 18°C
Rocío: 14°C
Humedad: 78%
Barómetro: 1027 hPa
Clouds: Muy nuboso
Visibility: 10 km
Cloud details: Muy nuboso 732 m
2018/06/18 11:00 LEVT 181100Z 00000KT 9999 BKN024 18/14 Q1027
 
LEBB - Bilbao/Sondica, Spain
Distance from station: NNO 235km
Actualización: 18/06/2018 13:00
Light drizzle, Muy nuboso
Light drizzle, Muy nuboso
 Viento del NNO
Viento: NNO 11 km/h
Temperatura: 20°C
Rocío: 17°C
Humedad: 83%
Barómetro: 1027 hPa
Resumen: Light Drizzle
Clouds: Muy nuboso
Visibility: 8 km
Cloud details: Few Clouds 457 m
Muy nuboso 610 m
2018/06/18 11:00 LEBB 181100Z 34006KT 300V030 8000 -DZ FEW015 BKN020 20/17 Q1027 NOSIG
LESO - San Sebastian/Fu, Spain
Distance from station: N 231km
Actualización: 18/06/2018 13:00
Muy nuboso
Muy nuboso
 Viento del OSO
Viento: OSO 6 km/h
Temperatura: 18°C
Rocío: 16°C
Humedad: 88%
Barómetro: 1027 hPa
Clouds: Muy nuboso
Visibility: 10 km
Cloud details: Muy nuboso 305 m
2018/06/18 11:00 LESO 181100Z 25003KT 180V300 9999 BKN010 18/16 Q1027
 
LEVD - Valladolid(Mil/C, Spain
Distance from station: ONO 239km
Actualización: 18/06/2018 13:00
Despejado
Despejado
 Viento del ENE
Viento: ENE 17 km/h
Temperatura: 22°C
Rocío: 11°C
Humedad: 50%
Barómetro: 1026 hPa
Resumen: Despejado
Visibility: greater than 10 km
2018/06/18 11:00 LEVD 181100Z 07009KT 040V110 CAVOK 22/11 Q1026
LESA - Salamanca (civ/M, Spain
Distance from station: ONO 349km
Actualización: 18/06/2018 13:00
Despejado
Despejado
 Viento del E
Viento: E 17 km/h
Temperatura: 25°C
Rocío: 10°C
Humedad: 39%
Barómetro: 1026 hPa
Resumen: Despejado
Visibility: greater than 10 km
2018/06/18 11:00 LESA 181100Z 08009KT 020V130 CAVOK 25/10 Q1026
 
LEXJ - Santander/Paraya, Spain
Distance from station: NNO 247km
Actualización: 18/06/2018 13:00
Muy nuboso
Muy nuboso
 Viento del OSO
Viento: OSO 13 km/h
Temperatura: 21°C
Rocío: 16°C
Humedad: 73%
Barómetro: 1027 hPa
Clouds: Muy nuboso
Visibility: 10 km
Cloud details: Few Clouds 549 m
Muy nuboso 853 m
2018/06/18 11:00 LEXJ 181100Z 25007KT 200V300 9999 FEW018 BKN028 21/16 Q1027
LEAS - Asturias/Aviles, Spain
Distance from station: NO 214km
Actualización: 18/06/2018 13:00
Muy nuboso
Muy nuboso
 Viento del varies
Viento: varies 4 km/h
Temperatura: 20°C
Rocío: 16°C
Humedad: 78%
Barómetro: 1027 hPa
Clouds: Muy nuboso
Visibility: 10 km
Cloud details: Few Clouds 427 m
Muy nuboso 671 m
2018/06/18 11:00 LEAS 181100Z VRB02KT 9999 FEW014 BKN022 20/16 Q1027 NOSIG
 
LECO - La Coruna/Alvedr, Spain
Distance from station: ONO 222km
Actualización: 18/06/2018 13:00
Few Clouds
Few Clouds
 Viento del N
Viento: N 15 km/h
Temperatura: 21°C
Rocío: 17°C
Humedad: 78%
Barómetro: 1026 hPa
Clouds: Few Clouds
Visibility: 10 km
Cloud details: Few Clouds 518 m
2018/06/18 11:00 LECO 181100Z 36008KT 320V060 9999 FEW017 21/17 Q1026 NOSIG
LEVX - Vigo/Peinador, Spain
Distance from station: O 214km
Actualización: 18/06/2018 13:00
Despejado
Despejado
 Viento del varies
Viento: varies 4 km/h
Temperatura: 28°C
Indice Calor: 29°C
Rocío: 18°C
Humedad: 55%
Barómetro: 1023 hPa
Resumen: Despejado
Visibility: greater than 10 km
2018/06/18 11:00 LEVX 181100Z VRB02KT CAVOK 28/18 Q1023 NOSIG